Time;durP1;ratioP1;P1;durP2;ratioP2;P2;SDS_P1;SDS_P2;PMS_P1;PMS_P2;Temp;Humidity;BMP_temperature;BMP_pressure;BME280_temperature;BME280_humidity;BME280_pressure;Samples;Min_cycle;Max_cycle;Signal;HPM_P1;HPM_P2
2022/09/16 00:01:24;;;;;;;5.13;3.00;;;;;;;13.84;100.00;98072.69;5057826;28;20045;-60
2022/09/16 00:04:08;;;;;;;5.20;2.95;;;;;;;14.03;100.00;98078.88;5050529;28;20143;-60
2022/09/16 00:06:54;;;;;;;3.67;2.88;;;;;;;14.45;100.00;98066.19;5045876;28;20033;-59
2022/09/16 00:09:39;;;;;;;4.57;2.45;;;;;;;14.56;100.00;98083.63;5047421;28;20159;-62
2022/09/16 00:12:24;;;;;;;4.80;2.58;;;;;;;15.03;100.00;98077.38;5054768;28;20059;-59
2022/09/16 00:15:09;;;;;;;6.13;2.45;;;;;;;15.55;100.00;98080.25;5047156;28;20033;-59
2022/09/16 00:17:53;;;;;;;3.90;2.58;;;;;;;15.47;100.00;98078.41;5051875;28;20053;-62
2022/09/16 00:20:56;;;;;;;3.20;2.58;;;;;;;15.07;100.00;98081.38;5034924;28;20072;-60
2022/09/16 00:23:41;;;;;;;5.60;3.00;;;;;;;14.96;100.00;98085.06;5039158;28;20499;-59
2022/09/16 00:26:25;;;;;;;5.97;3.10;;;;;;;14.90;100.00;98090.94;5045549;28;20133;-59
2022/09/16 00:29:10;;;;;;;4.43;2.70;;;;;;;14.85;100.00;98096.63;5049935;28;20066;-63
2022/09/16 00:31:55;;;;;;;4.43;3.13;;;;;;;15.21;100.00;98097.66;5043999;28;20045;-59
2022/09/16 00:34:39;;;;;;;4.15;2.83;;;;;;;15.35;100.00;98094.47;5049025;28;20041;-59
2022/09/16 00:37:24;;;;;;;7.22;2.67;;;;;;;15.05;100.00;98085.16;5052419;28;20041;-59
2022/09/16 00:40:09;;;;;;;4.50;2.67;;;;;;;14.83;100.00;98090.72;5038828;28;20080;-60
2022/09/16 00:42:54;;;;;;;5.47;2.50;;;;;;;14.66;100.00;98095.78;5071817;28;20366;-64
2022/09/16 00:45:38;;;;;;;5.38;2.72;;;;;;;15.24;100.00;98092.06;5052411;28;20132;-60
2022/09/16 00:48:26;;;;;;;4.70;3.42;;;;;;;14.65;100.00;98093.28;5053164;28;20468;-61
2022/09/16 00:51:12;;;;;;;4.70;3.40;;;;;;;14.15;100.00;98098.78;5053953;28;20037;-61
2022/09/16 00:54:02;;;;;;;8.23;3.33;;;;;;;14.03;100.00;98090.25;5064999;28;20060;-59
2022/09/16 00:56:52;;;;;;;4.10;3.05;;;;;;;13.90;100.00;98093.22;5052085;28;20167;-60
2022/09/16 00:59:42;;;;;;;4.68;3.22;;;;;;;13.58;100.00;98091.72;5058365;28;20049;-61
2022/09/16 01:02:27;;;;;;;5.20;3.28;;;;;;;13.58;100.00;98094.38;5052231;28;20114;-60
2022/09/16 01:05:19;;;;;;;5.07;3.28;;;;;;;13.85;100.00;98098.06;5052055;28;20048;-60
2022/09/16 01:08:04;;;;;;;4.20;2.90;;;;;;;13.90;100.00;98102.91;5054047;28;20044;-60
2022/09/16 01:10:49;;;;;;;4.50;2.97;;;;;;;14.00;100.00;98098.41;5046539;28;20045;-59
2022/09/16 01:13:34;;;;;;;5.38;2.92;;;;;;;13.64;100.00;98091.16;5050359;28;20045;-61
2022/09/16 01:16:39;;;;;;;5.63;3.63;;;;;;;13.42;100.00;98087.84;5051355;28;20044;-60
2022/09/16 01:19:42;;;;;;;4.20;2.85;;;;;;;13.27;100.00;98095.34;5052245;28;20048;-60
2022/09/16 01:22:46;;;;;;;6.18;2.83;;;;;;;13.20;100.00;98091.63;5052592;28;20048;-60
2022/09/16 01:25:43;;;;;;;5.68;4.05;;;;;;;13.02;100.00;98084.38;5063536;28;20037;-59
2022/09/16 01:29:10;;;;;;;4.55;3.22;;;;;;;12.94;100.00;98079.03;5053871;28;20039;-59
2022/09/16 01:32:20;;;;;;;5.13;3.30;;;;;;;12.86;100.00;98077.06;5048780;28;20083;-62
2022/09/16 01:35:29;;;;;;;4.90;3.30;;;;;;;12.83;100.00;98074.69;5055763;28;20464;-59
2022/09/16 01:38:16;;;;;;;6.18;3.60;;;;;;;12.92;100.00;98075.69;5009528;28;20138;-60
2022/09/16 01:41:18;;;;;;;5.03;3.15;;;;;;;13.00;100.00;98069.72;5009923;28;20161;-61
2022/09/16 01:44:22;;;;;;;4.45;3.00;;;;;;;12.97;100.00;98070.00;5008852;28;20482;-60
2022/09/16 01:47:20;;;;;;;4.35;2.97;;;;;;;12.97;100.00;98084.00;4997065;28;20177;-61
2022/09/16 01:50:29;;;;;;;4.50;3.28;;;;;;;12.93;100.00;98085.22;4994997;28;20112;-61
2022/09/16 01:53:26;;;;;;;4.25;2.72;;;;;;;13.06;100.00;98079.69;5010606;28;20077;-60
2022/09/16 01:56:30;;;;;;;4.63;2.60;;;;;;;13.18;100.00;98073.34;5008270;28;20038;-60
2022/09/16 01:59:24;;;;;;;3.67;2.50;;;;;;;13.01;100.00;98079.28;5010858;28;20099;-60
2022/09/16 02:02:14;;;;;;;3.80;2.83;;;;;;;13.03;100.00;98072.09;5010945;28;20056;-59
2022/09/16 02:05:02;;;;;;;4.22;2.75;;;;;;;13.12;100.00;98075.69;5009108;28;20121;-60
2022/09/16 02:07:52;;;;;;;3.67;2.72;;;;;;;13.20;100.00;98073.22;4994614;28;20402;-61
2022/09/16 02:10:57;;;;;;;4.43;2.50;;;;;;;13.22;100.00;98068.63;5008228;28;20425;-59
2022/09/16 02:13:46;;;;;;;3.08;2.50;;;;;;;13.21;100.00;98066.13;5006233;28;20037;-59
2022/09/16 02:16:41;;;;;;;3.25;2.38;;;;;;;13.06;100.00;98062.13;5050980;28;20061;-59
2022/09/16 02:19:59;;;;;;;6.25;2.60;;;;;;;13.01;100.00;98061.72;5039740;28;20128;-62
2022/09/16 02:22:53;;;;;;;6.07;2.72;;;;;;;13.10;100.00;98061.84;5024224;28;20042;-60
2022/09/16 02:25:40;;;;;;;3.40;2.30;;;;;;;13.52;100.00;98073.88;5005785;28;20120;-60
2022/09/16 02:28:30;;;;;;;3.35;2.20;;;;;;;13.83;100.00;98072.84;5025893;28;20497;-61
2022/09/16 02:31:19;;;;;;;3.63;1.85;;;;;;;13.91;100.00;98076.44;5027906;28;20381;-61
2022/09/16 02:34:10;;;;;;;6.82;1.80;;;;;;;14.40;100.00;98070.13;5018091;28;20107;-60
2022/09/16 02:36:59;;;;;;;6.43;2.45;;;;;;;14.18;100.00;98073.97;5025410;28;20048;-59
2022/09/16 02:39:49;;;;;;;3.72;1.67;;;;;;;14.57;100.00;98061.56;5024443;28;20045;-59
2022/09/16 02:42:33;;;;;;;3.47;1.88;;;;;;;14.69;100.00;98059.56;5010172;28;20046;-58
2022/09/16 02:45:29;;;;;;;3.50;1.90;;;;;;;13.97;100.00;98058.41;5004817;28;20045;-59
2022/09/16 02:48:45;;;;;;;3.55;2.13;;;;;;;14.13;100.00;98063.84;5008929;28;20045;-59
2022/09/16 02:51:49;;;;;;;7.32;1.92;;;;;;;14.18;100.00;98059.97;5023869;28;20052;-59
2022/09/16 02:54:48;;;;;;;2.83;2.08;;;;;;;14.45;100.00;98060.94;5011081;28;20505;-59
2022/09/16 02:57:33;;;;;;;3.30;1.77;;;;;;;14.59;100.00;98063.06;5020132;28;20037;-58
2022/09/16 03:00:19;;;;;;;2.20;1.77;;;;;;;14.37;100.00;98057.25;5032134;28;20049;-60
2022/09/16 03:03:04;;;;;;;2.63;1.65;;;;;;;14.45;100.00;98058.28;5049480;28;20094;-59
2022/09/16 03:06:13;;;;;;;2.80;2.08;;;;;;;14.20;100.00;98052.75;5050102;28;20075;-60
2022/09/16 03:08:59;;;;;;;4.10;2.25;;;;;;;13.84;100.00;98054.25;5054235;28;20077;-58
2022/09/16 03:11:47;;;;;;;3.53;2.03;;;;;;;13.64;100.00;98059.59;5051163;28;20057;-60
2022/09/16 03:14:37;;;;;;;4.13;1.98;;;;;;;14.13;100.00;98055.13;5048638;28;20051;-60
2022/09/16 03:17:43;;;;;;;2.45;1.88;;;;;;;14.20;100.00;98060.66;5041456;28;20068;-59
2022/09/16 03:20:40;;;;;;;3.17;2.25;;;;;;;13.91;100.00;98059.78;5049723;28;20045;-59
2022/09/16 03:23:45;;;;;;;3.45;1.50;;;;;;;13.87;100.00;98066.31;5047005;28;20037;-59
2022/09/16 03:26:36;;;;;;;3.75;1.60;;;;;;;14.02;100.00;98066.66;5047615;28;20040;-58
2022/09/16 03:29:31;;;;;;;3.30;2.28;;;;;;;14.33;100.00;98063.75;5048103;28;20052;-59
2022/09/16 03:32:27;;;;;;;2.58;1.60;;;;;;;14.72;100.00;98075.06;5059582;28;20033;-59
2022/09/16 03:35:25;;;;;;;3.80;1.60;;;;;;;14.71;100.00;98078.66;5057016;28;20041;-60
2022/09/16 03:38:12;;;;;;;2.65;1.48;;;;;;;14.88;100.00;98082.34;5053045;28;20186;-59
2022/09/16 03:40:57;;;;;;;2.33;1.63;;;;;;;14.70;100.00;98080.50;5055705;28;20044;-60
2022/09/16 03:43:57;;;;;;;2.88;1.52;;;;;;;14.30;100.00;98079.88;5054911;28;20047;-59
2022/09/16 03:46:41;;;;;;;2.55;1.52;;;;;;;14.21;100.00;98078.13;5054713;28;20037;-59
2022/09/16 03:49:26;;;;;;;2.85;1.40;;;;;;;13.99;100.00;98080.13;5054939;28;20075;-60
2022/09/16 03:52:11;;;;;;;2.00;1.50;;;;;;;14.03;100.00;98079.72;5045869;28;20464;-60
2022/09/16 03:54:55;;;;;;;2.67;1.77;;;;;;;13.91;100.00;98080.84;5066534;28;20063;-59
2022/09/16 03:57:39;;;;;;;2.15;1.60;;;;;;;13.78;100.00;98087.28;5047669;28;20041;-60
2022/09/16 04:00:24;;;;;;;2.10;1.50;;;;;;;13.83;100.00;98091.25;5052767;28;20122;-59
2022/09/16 04:03:09;;;;;;;2.40;1.50;;;;;;;13.86;100.00;98099.72;5037610;28;20042;-60
2022/09/16 04:05:54;;;;;;;5.35;1.55;;;;;;;13.58;100.00;98096.19;5043037;28;20041;-59
2022/09/16 04:08:39;;;;;;;3.70;1.33;;;;;;;13.78;100.00;98097.81;5045502;28;20346;-59
2022/09/16 04:11:24;;;;;;;3.53;1.65;;;;;;;13.86;100.00;98102.34;5057356;28;20049;-61
2022/09/16 04:14:09;;;;;;;5.20;1.92;;;;;;;14.13;100.00;98108.63;5049082;28;20037;-63
2022/09/16 04:16:54;;;;;;;2.63;1.60;;;;;;;14.15;100.00;98103.25;5045398;28;20056;-59
2022/09/16 04:19:39;;;;;;;3.65;1.55;;;;;;;14.02;100.00;98098.28;5053604;28;20033;-59
2022/09/16 04:22:23;;;;;;;4.70;1.30;;;;;;;14.00;100.00;98092.34;5057371;28;20060;-60
2022/09/16 04:25:08;;;;;;;2.78;2.00;;;;;;;13.50;100.00;98092.41;5051333;28;20072;-59
2022/09/16 04:27:53;;;;;;;3.55;2.35;;;;;;;12.78;100.00;98093.50;5048248;28;20104;-59
2022/09/16 04:30:37;;;;;;;5.18;2.15;;;;;;;12.62;100.00;98080.91;5052300;28;20059;-61
2022/09/16 04:33:28;;;;;;;5.22;2.47;;;;;;;12.30;100.00;98080.13;5042319;28;20045;-59
2022/09/16 04:36:15;;;;;;;3.97;2.28;;;;;;;12.34;100.00;98082.50;5045238;28;20029;-60
2022/09/16 04:39:00;;;;;;;3.95;2.60;;;;;;;12.17;100.00;98072.50;5036845;28;20057;-60
2022/09/16 04:41:45;;;;;;;5.30;2.90;;;;;;;12.09;100.00;98059.19;5049087;28;20530;-60
2022/09/16 04:44:29;;;;;;;5.97;2.85;;;;;;;11.98;100.00;98064.50;5041449;28;20417;-61
2022/09/16 04:47:14;;;;;;;4.50;3.20;;;;;;;12.06;100.00;98065.50;5040524;28;20055;-60
2022/09/16 04:50:00;;;;;;;4.10;3.00;;;;;;;12.22;100.00;98056.34;5045876;28;20088;-60
2022/09/16 04:52:44;;;;;;;7.00;3.10;;;;;;;12.19;100.00;98057.41;5040379;28;20132;-60
2022/09/16 04:55:31;;;;;;;4.35;2.90;;;;;;;11.98;100.00;98057.44;5047233;28;20052;-61
2022/09/16 04:58:15;;;;;;;3.80;2.67;;;;;;;12.83;100.00;98042.34;5051328;28;20037;-60
2022/09/16 05:01:11;;;;;;;3.72;2.20;;;;;;;12.78;100.00;98040.94;5043639;28;20042;-61
2022/09/16 05:03:58;;;;;;;5.70;2.03;;;;;;;12.63;100.00;98043.13;5050262;28;20037;-60
2022/09/16 05:06:43;;;;;;;3.22;2.28;;;;;;;12.66;100.00;98042.88;5042965;28;20044;-60
2022/09/16 05:09:28;;;;;;;4.68;1.70;;;;;;;12.63;100.00;98039.69;5047370;28;20040;-60
2022/09/16 05:12:12;;;;;;;3.90;1.90;;;;;;;12.90;100.00;98049.53;5057217;28;20769;-60
2022/09/16 05:14:57;;;;;;;2.15;1.50;;;;;;;12.81;100.00;98061.69;5044943;28;20477;-60
2022/09/16 05:17:42;;;;;;;5.18;1.73;;;;;;;13.64;100.00;98077.19;5044184;28;20124;-61
2022/09/16 05:20:27;;;;;;;3.65;1.50;;;;;;;14.32;100.00;98079.72;5058521;28;20040;-60
2022/09/16 05:23:11;;;;;;;3.70;1.63;;;;;;;14.77;100.00;98081.53;5050973;28;20085;-59
2022/09/16 05:26:02;;;;;;;2.25;1.45;;;;;;;14.98;99.28;98083.09;5043600;28;20112;-60
2022/09/16 05:28:49;;;;;;;2.73;1.57;;;;;;;14.72;100.00;98077.72;5037799;28;20108;-59
2022/09/16 05:31:36;;;;;;;4.85;1.88;;;;;;;15.18;96.83;98080.28;5034986;28;20047;-62
2022/09/16 05:34:22;;;;;;;2.92;2.10;;;;;;;14.79;99.34;98081.38;5052872;28;20030;-60
2022/09/16 05:37:06;;;;;;;3.05;1.50;;;;;;;14.76;100.00;98087.81;5043399;28;20045;-62
2022/09/16 05:39:51;;;;;;;4.38;1.90;;;;;;;14.97;100.00;98091.16;5041787;28;20520;-60
2022/09/16 05:42:35;;;;;;;4.47;2.05;;;;;;;15.49;100.00;98087.81;5043126;28;20095;-60
2022/09/16 05:45:21;;;;;;;9.00;2.35;;;;;;;15.92;100.00;98083.63;5040999;28;20361;-61
2022/09/16 05:48:06;;;;;;;4.28;2.58;;;;;;;15.60;100.00;98086.72;5055078;28;20037;-63
2022/09/16 05:50:55;;;;;;;4.30;2.78;;;;;;;15.33;100.00;98082.41;5045757;28;20418;-62
2022/09/16 05:53:40;;;;;;;3.10;2.28;;;;;;;15.43;100.00;98079.66;5072135;28;20045;-61
2022/09/16 05:56:26;;;;;;;2.58;2.30;;;;;;;15.10;100.00;98072.31;5048171;28;20080;-61
2022/09/16 05:59:12;;;;;;;6.28;2.55;;;;;;;15.28;100.00;98067.03;5047863;28;20048;-61
2022/09/16 06:01:58;;;;;;;2.95;2.22;;;;;;;15.31;100.00;98073.81;5036257;28;20077;-61
2022/09/16 06:04:42;;;;;;;3.88;2.78;;;;;;;15.37;100.00;98073.19;5037348;28;20046;-59
2022/09/16 06:07:27;;;;;;;4.07;2.20;;;;;;;15.58;100.00;98078.16;5038246;28;20434;-61
2022/09/16 06:10:11;;;;;;;6.40;2.03;;;;;;;15.32;100.00;98083.38;5044601;28;20491;-61
2022/09/16 06:12:56;;;;;;;4.43;1.85;;;;;;;16.59;100.00;98079.47;5054212;28;20045;-60
2022/09/16 06:15:52;;;;;;;3.53;2.10;;;;;;;16.91;95.70;98083.16;5037712;28;20120;-60
2022/09/16 06:18:37;;;;;;;3.72;2.28;;;;;;;17.05;93.86;98071.13;5024678;28;20067;-60
2022/09/16 06:21:23;;;;;;;6.45;2.15;;;;;;;17.57;90.24;98082.41;5041915;28;20437;-60
2022/09/16 06:24:07;;;;;;;3.30;2.53;;;;;;;16.38;93.68;98075.44;5044065;28;20041;-62
2022/09/16 06:26:52;;;;;;;4.40;2.30;;;;;;;15.94;97.44;98076.38;5035655;28;20072;-61
2022/09/16 06:29:36;;;;;;;3.85;2.15;;;;;;;15.95;96.06;98063.00;5034204;28;20224;-59
2022/09/16 06:32:21;;;;;;;3.13;2.42;;;;;;;15.52;97.32;98073.50;5040152;28;20037;-57
2022/09/16 06:35:06;;;;;;;4.85;2.65;;;;;;;15.26;98.63;98066.34;5038372;28;20079;-57
2022/09/16 06:37:53;;;;;;;4.93;2.08;;;;;;;15.00;98.45;98069.75;5040359;28;20588;-61
2022/09/16 06:40:37;;;;;;;3.13;2.10;;;;;;;15.03;98.77;98078.19;5072399;28;20497;-57
2022/09/16 06:43:22;;;;;;;3.80;2.47;;;;;;;14.78;99.37;98077.09;5052561;28;20049;-58
2022/09/16 06:46:15;;;;;;;4.90;2.08;;;;;;;14.68;100.00;98079.81;5037340;28;20436;-57
2022/09/16 06:49:00;;;;;;;3.60;2.22;;;;;;;14.72;100.00;98081.16;5047036;28;20452;-57
2022/09/16 06:51:45;;;;;;;6.25;2.20;;;;;;;14.78;100.00;98083.22;5042961;28;20112;-58
2022/09/16 06:54:29;;;;;;;3.80;2.15;;;;;;;14.79;100.00;98084.03;5044032;28;20044;-55
2022/09/16 06:57:14;;;;;;;4.97;2.17;;;;;;;14.64;100.00;98087.16;5044434;28;20445;-54
2022/09/16 06:59:59;;;;;;;3.05;2.05;;;;;;;14.63;100.00;98088.16;5042804;28;20058;-56
2022/09/16 07:02:43;;;;;;;3.20;2.20;;;;;;;14.44;100.00;98091.75;5040152;28;20049;-53
2022/09/16 07:05:28;;;;;;;3.97;2.10;;;;;;;14.50;100.00;98103.47;5038285;28;20481;-52
2022/09/16 07:08:13;;;;;;;3.95;2.35;;;;;;;14.54;100.00;98097.78;5044550;28;20560;-59
2022/09/16 07:11:03;;;;;;;2.63;1.83;;;;;;;14.45;100.00;98095.19;5042961;28;20029;-56
2022/09/16 07:13:48;;;;;;;2.88;2.10;;;;;;;14.78;100.00;98092.91;5053572;28;20116;-58
2022/09/16 07:16:33;;;;;;;3.85;2.15;;;;;;;14.93;100.00;98081.91;5040414;28;20038;-55
2022/09/16 07:19:18;;;;;;;4.07;2.17;;;;;;;14.96;99.38;98095.63;5026892;28;20113;-55
2022/09/16 07:22:02;;;;;;;7.05;2.20;;;;;;;15.07;97.68;98094.56;5037189;28;20094;-56
2022/09/16 07:24:47;;;;;;;2.65;1.75;;;;;;;15.28;96.02;98109.25;5027741;28;20046;-55
2022/09/16 07:27:31;;;;;;;2.88;1.77;;;;;;;15.55;95.06;98114.56;5041217;28;20065;-56
2022/09/16 07:30:16;;;;;;;2.50;1.80;;;;;;;15.87;93.86;98099.94;5036837;28;20171;-60
2022/09/16 07:33:01;;;;;;;7.10;2.35;;;;;;;16.16;93.38;98113.84;5039781;28;20045;-57
2022/09/16 07:35:45;;;;;;;5.18;2.53;;;;;;;16.15;93.93;98118.28;5041866;28;20083;-57
2022/09/16 07:38:30;;;;;;;3.15;2.30;;;;;;;16.03;94.01;98119.56;5045865;28;20037;-57
2022/09/16 07:41:17;;;;;;;3.45;1.88;;;;;;;16.13;93.39;98118.44;5042887;28;20030;-54
2022/09/16 07:44:04;;;;;;;5.80;2.20;;;;;;;16.18;94.04;98117.97;5048548;28;20033;-54
2022/09/16 07:46:49;;;;;;;3.85;2.10;;;;;;;16.13;94.05;98118.44;5048011;28;20045;-54
2022/09/16 07:49:34;;;;;;;5.88;2.53;;;;;;;16.51;92.36;98122.56;5049057;28;20038;-56
2022/09/16 07:52:19;;;;;;;7.78;2.28;;;;;;;16.85;88.98;98118.22;5051085;28;20044;-56
2022/09/16 07:55:03;;;;;;;5.15;2.53;;;;;;;16.63;88.16;98123.09;5041723;28;20045;-57
2022/09/16 07:57:48;;;;;;;7.40;2.30;;;;;;;16.84;87.00;98132.44;5037706;28;20056;-56
2022/09/16 08:00:32;;;;;;;3.67;2.20;;;;;;;16.93;87.25;98131.47;5045084;28;20098;-59
2022/09/16 08:03:17;;;;;;;4.28;2.03;;;;;;;17.11;85.23;98126.06;5049763;28;20125;-60
2022/09/16 08:06:04;;;;;;;6.70;2.30;;;;;;;16.63;88.29;98131.88;5045822;28;20152;-58
2022/09/16 08:08:55;;;;;;;3.75;2.25;;;;;;;16.42;91.04;98123.53;5048971;28;20124;-57
2022/09/16 08:11:39;;;;;;;4.93;2.47;;;;;;;16.50;92.85;98123.53;5040246;28;20037;-60
2022/09/16 08:14:24;;;;;;;4.07;2.25;;;;;;;16.01;91.92;98130.28;5049666;28;20044;-60
2022/09/16 08:17:10;;;;;;;3.70;2.30;;;;;;;15.61;95.71;98124.50;5051704;28;20049;-60
2022/09/16 08:19:54;;;;;;;3.90;2.17;;;;;;;16.43;93.95;98118.09;5041762;28;20060;-59
2022/09/16 08:22:39;;;;;;;4.13;2.05;;;;;;;16.96;91.43;98125.84;5045813;28;20053;-63
2022/09/16 08:25:24;;;;;;;5.38;1.95;;;;;;;17.03;87.21;98125.19;5038134;28;20053;-59
2022/09/16 08:28:16;;;;;;;5.35;2.17;;;;;;;17.61;86.57;98125.25;5051933;28;20118;-59
2022/09/16 08:31:01;;;;;;;8.35;2.20;;;;;;;17.54;84.22;98127.75;5050802;28;20037;-60
2022/09/16 08:33:46;;;;;;;3.05;1.50;;;;;;;17.45;83.89;98128.72;5045332;28;20472;-60
2022/09/16 08:36:32;;;;;;;2.42;1.60;;;;;;;17.35;81.89;98128.88;5038799;28;20093;-60
2022/09/16 08:39:17;;;;;;;6.05;1.63;;;;;;;17.93;83.70;98128.03;5041889;28;20041;-60
2022/09/16 08:42:28;;;;;;;4.28;1.95;;;;;;;17.77;79.93;98115.66;5043319;28;20128;-60
2022/09/16 08:45:25;;;;;;;3.65;1.70;;;;;;;17.69;82.32;98109.34;5050572;28;20044;-61
2022/09/16 08:48:17;;;;;;;4.07;1.85;;;;;;;17.94;77.86;98111.97;5043606;28;20129;-60
2022/09/16 08:51:04;;;;;;;2.55;2.03;;;;;;;17.22;81.16;98103.75;5043567;28;20044;-58
2022/09/16 08:54:14;;;;;;;2.88;2.00;;;;;;;16.94;80.93;98105.84;5036838;28;20117;-59
2022/09/16 08:57:02;;;;;;;5.45;1.90;;;;;;;17.31;82.18;98103.75;5054129;28;20041;-59
2022/09/16 08:59:52;;;;;;;3.47;1.90;;;;;;;17.41;82.76;98104.44;5045586;28;20037;-59
2022/09/16 09:02:46;;;;;;;4.47;1.80;;;;;;;17.65;79.89;98100.09;5038673;28;20049;-58
2022/09/16 09:05:47;;;;;;;2.13;1.55;;;;;;;17.81;82.00;98104.53;5043898;28;20459;-59
2022/09/16 09:09:13;;;;;;;4.00;2.20;;;;;;;18.24;76.93;98105.28;5045408;28;20115;-59
2022/09/16 09:12:13;;;;;;;2.88;1.38;;;;;;;18.16;81.88;98108.81;4994320;28;20125;-59
2022/09/16 09:15:00;;;;;;;2.60;1.80;;;;;;;18.46;76.32;98103.72;4999451;28;20125;-60
2022/09/16 09:17:54;;;;;;;18.88;2.33;;;;;;;17.90;79.05;98100.06;5010792;28;20079;-59
2022/09/16 09:21:16;;;;;;;2.15;1.63;;;;;;;18.06;79.51;98099.19;5015395;28;20222;-60
2022/09/16 09:24:32;;;;;;;2.63;1.80;;;;;;;18.20;78.50;98108.28;5009465;28;20493;-59
2022/09/16 09:27:42;;;;;;;4.43;2.13;;;;;;;18.78;74.01;98099.25;5009376;28;20122;-61
2022/09/16 09:30:27;;;;;;;2.83;2.05;;;;;;;18.59;73.54;98096.03;5011278;28;20119;-60
2022/09/16 09:33:51;;;;;;;2.97;2.45;;;;;;;17.93;75.20;98104.19;4996939;28;20417;-63
2022/09/16 09:36:48;;;;;;;6.40;2.30;;;;;;;17.78;76.51;98099.59;5004647;28;20077;-60
2022/09/16 09:39:55;;;;;;;4.20;1.80;;;;;;;17.83;76.54;98099.91;4991249;28;20066;-59
2022/09/16 09:43:14;;;;;;;5.18;2.00;;;;;;;17.95;76.62;98096.91;4983839;28;20072;-62
2022/09/16 09:46:19;;;;;;;4.57;2.42;;;;;;;18.22;75.18;98103.66;4951301;29;20047;-63
2022/09/16 09:49:20;;;;;;;4.47;2.28;;;;;;;17.57;76.85;98100.09;4965594;28;20166;-59
2022/09/16 09:52:28;;;;;;;3.20;2.50;;;;;;;17.53;77.83;98094.31;5000169;28;20050;-60
2022/09/16 09:55:18;;;;;;;4.63;2.90;;;;;;;17.68;76.21;98101.56;4988089;28;20042;-60
2022/09/16 09:58:27;;;;;;;3.10;2.20;;;;;;;17.90;76.69;98102.72;4974595;28;20046;-60
2022/09/16 10:01:11;;;;;;;5.00;3.00;;;;;;;18.49;74.80;98107.84;4971899;28;20129;-61
2022/09/16 10:03:58;;;;;;;5.95;2.85;;;;;;;18.70;72.86;98108.06;4985338;28;20046;-61
2022/09/16 10:06:44;;;;;;;3.67;2.75;;;;;;;20.07;68.62;98104.06;4990908;28;20089;-60
2022/09/16 10:09:29;;;;;;;4.78;2.30;;;;;;;21.61;64.30;98092.59;4988081;28;20061;-60
2022/09/16 10:12:29;;;;;;;5.00;2.20;;;;;;;21.96;60.63;98099.84;4977680;28;20211;-60
2022/09/16 10:15:23;;;;;;;3.42;1.98;;;;;;;21.60;63.13;98090.13;4971840;28;20050;-60
2022/09/16 10:18:28;;;;;;;4.95;2.47;;;;;;;22.24;59.53;98090.97;4973916;28;20113;-59
2022/09/16 10:21:15;;;;;;;4.75;2.03;;;;;;;22.88;58.53;98079.31;5000233;28;20056;-59
2022/09/16 10:24:00;;;;;;;4.43;2.45;;;;;;;22.86;57.32;98076.84;5054921;28;20052;-61
2022/09/16 10:26:45;;;;;;;3.20;1.80;;;;;;;23.34;59.90;98075.03;5045186;28;20047;-60
2022/09/16 10:29:29;;;;;;;3.22;2.00;;;;;;;23.00;59.32;98068.84;5051200;28;20068;-60
2022/09/16 10:32:18;;;;;;;4.15;2.65;;;;;;;21.63;59.91;98081.75;5059192;28;20079;-64
2022/09/16 10:35:06;;;;;;;4.65;2.90;;;;;;;21.77;59.74;98083.50;5041304;28;20037;-60
2022/09/16 10:38:11;;;;;;;4.78;2.50;;;;;;;21.95;58.78;98090.19;5061148;28;20126;-61
2022/09/16 10:41:04;;;;;;;4.22;2.00;;;;;;;23.20;56.11;98079.56;5008079;28;20152;-60
2022/09/16 10:44:06;;;;;;;3.63;2.83;;;;;;;21.89;57.75;98083.81;5022649;28;20192;-61
2022/09/16 10:46:50;;;;;;;5.28;2.35;;;;;;;23.06;55.02;98070.69;5011918;28;20042;-60
2022/09/16 10:49:45;;;;;;;4.65;2.20;;;;;;;22.45;56.85;98073.22;5009933;28;20046;-59
2022/09/16 10:52:43;;;;;;;4.57;2.80;;;;;;;22.46;55.57;98069.50;5020316;28;20057;-61
2022/09/16 10:55:34;;;;;;;5.18;2.88;;;;;;;22.97;55.61;98067.41;4982515;28;20042;-61
2022/09/16 10:58:19;;;;;;;4.78;2.03;;;;;;;24.96;51.62;98057.72;5011282;28;20114;-60
2022/09/16 11:01:12;;;;;;;6.38;2.05;;;;;;;25.80;49.55;98058.47;4994362;28;20080;-61
2022/09/16 11:04:24;;;;;;;4.63;1.35;;;;;;;25.13;49.29;98059.06;5004501;28;20042;-60
2022/09/16 11:07:30;;;;;;;3.53;2.40;;;;;;;22.51;55.32;98058.22;5009323;28;20152;-61
2022/09/16 11:10:25;;;;;;;5.15;2.22;;;;;;;21.51;57.67;98074.28;5012120;28;20093;-61
2022/09/16 11:13:22;;;;;;;3.83;2.05;;;;;;;21.90;58.09;98068.66;5014550;28;20049;-62
2022/09/16 11:16:27;;;;;;;5.75;2.00;;;;;;;21.98;55.37;98079.16;4990956;28;20498;-60
2022/09/16 11:19:22;;;;;;;3.20;1.75;;;;;;;21.53;55.65;98066.94;5042241;28;20056;-67
2022/09/16 11:22:46;;;;;;;2.45;1.73;;;;;;;21.65;56.44;98071.72;5032779;28;20073;-60
2022/09/16 11:25:43;;;;;;;2.80;2.00;;;;;;;20.67;56.65;98069.41;5075723;28;20049;-61
2022/09/16 11:28:43;;;;;;;3.45;2.10;;;;;;;19.72;60.82;98059.38;5041824;28;20040;-60
2022/09/16 11:31:43;;;;;;;8.18;2.05;;;;;;;21.04;60.32;98069.41;5049693;28;20509;-60
2022/09/16 11:34:48;;;;;;;4.35;2.15;;;;;;;20.36;59.44;98067.00;5049741;28;20136;-60
2022/09/16 11:37:41;;;;;;;3.17;1.52;;;;;;;20.39;60.83;98069.28;5038303;28;20041;-60
2022/09/16 11:40:58;;;;;;;3.33;1.80;;;;;;;20.39;59.86;98075.44;5060691;28;20407;-60
2022/09/16 11:44:27;;;;;;;2.65;1.85;;;;;;;20.51;59.59;98065.16;5068019;28;20111;-62
2022/09/16 11:47:15;;;;;;;3.90;2.08;;;;;;;20.05;60.10;98067.03;5031136;28;20508;-62
2022/09/16 11:50:13;;;;;;;3.03;1.98;;;;;;;19.93;60.71;98060.47;5016198;28;20041;-63
2022/09/16 11:53:08;;;;;;;4.95;2.15;;;;;;;19.76;61.26;98058.03;5016726;28;20038;-59
2022/09/16 11:55:59;;;;;;;2.58;2.00;;;;;;;19.65;61.72;98055.81;5020763;28;20048;-59
2022/09/16 11:58:56;;;;;;;2.50;1.83;;;;;;;19.54;62.47;98049.91;5022428;28;20072;-60
2022/09/16 12:01:50;;;;;;;2.78;1.80;;;;;;;19.24;63.64;98047.22;5021018;28;20056;-61
2022/09/16 12:04:41;;;;;;;6.00;2.05;;;;;;;19.63;61.93;98039.22;5024447;28;20120;-59
2022/09/16 12:07:35;;;;;;;7.35;1.90;;;;;;;19.40;59.22;98029.47;5024385;28;20042;-60
2022/09/16 12:10:26;;;;;;;3.05;1.98;;;;;;;18.92;62.16;98031.34;5023129;28;20080;-59
2022/09/16 12:13:17;;;;;;;2.70;1.80;;;;;;;19.19;62.18;98020.38;5015349;28;20532;-60
2022/09/16 12:16:07;;;;;;;2.53;1.58;;;;;;;19.54;62.18;98014.56;5025829;28;20045;-60
2022/09/16 12:19:00;;;;;;;2.47;1.95;;;;;;;19.50;60.33;98011.47;5013912;28;20056;-59
2022/09/16 12:21:58;;;;;;;3.67;1.83;;;;;;;19.38;60.24;98002.28;5044452;28;20167;-59
2022/09/16 12:24:50;;;;;;;3.63;1.90;;;;;;;19.37;60.71;98004.13;5052737;28;20094;-62
2022/09/16 12:27:46;;;;;;;2.90;1.67;;;;;;;19.17;61.96;97994.00;5049764;28;20036;-62
2022/09/16 12:30:37;;;;;;;3.13;1.85;;;;;;;19.38;61.98;97989.00;5034773;28;20057;-60
2022/09/16 12:33:31;;;;;;;2.63;1.70;;;;;;;19.61;60.39;97980.97;5037800;28;20188;-61
2022/09/16 12:36:24;;;;;;;3.75;2.15;;;;;;;20.11;59.46;97976.94;5074984;28;20037;-62
2022/09/16 12:39:11;;;;;;;3.63;1.92;;;;;;;19.71;59.63;97970.06;5039983;28;20068;-60
2022/09/16 12:42:13;;;;;;;4.28;1.85;;;;;;;19.46;58.74;97980.94;5044909;28;20388;-62
2022/09/16 12:45:22;;;;;;;3.53;1.95;;;;;;;19.64;59.74;97977.94;5051065;28;20083;-60
2022/09/16 12:48:15;;;;;;;3.55;1.83;;;;;;;19.03;63.73;97984.97;5048018;28;20480;-60
2022/09/16 12:51:15;;;;;;;4.82;1.88;;;;;;;19.04;63.07;97983.16;5049227;28;20045;-59
2022/09/16 12:54:08;;;;;;;6.38;1.80;;;;;;;19.33;63.10;97998.34;5044060;28;20430;-61
2022/09/16 12:57:12;;;;;;;3.95;1.70;;;;;;;19.29;61.96;97997.03;5067974;28;20120;-60
2022/09/16 12:59:57;;;;;;;2.60;1.98;;;;;;;19.18;62.52;97993.00;5043626;28;20041;-60
2022/09/16 13:03:33;;;;;;;2.72;1.80;;;;;;;18.92;64.63;97988.88;5043569;28;20032;-61
2022/09/16 13:06:28;;;;;;;4.80;2.30;;;;;;;18.49;64.11;97994.63;5018128;28;20053;-61
2022/09/16 13:09:21;;;;;;;6.00;1.48;;;;;;;18.53;66.08;97982.69;5006263;28;20128;-61
2022/09/16 13:12:24;;;;;;;4.03;2.00;;;;;;;18.51;65.80;97991.84;5015467;28;20478;-59
2022/09/16 13:15:31;;;;;;;3.58;2.00;;;;;;;19.16;65.37;97976.41;5011652;28;20054;-59
2022/09/16 13:18:16;;;;;;;2.80;2.10;;;;;;;19.07;64.63;97969.50;5015601;28;20034;-59
2022/09/16 13:21:11;;;;;;;3.10;2.17;;;;;;;18.71;65.64;97971.81;5019277;28;20216;-58
2022/09/16 13:24:19;;;;;;;4.88;1.98;;;;;;;18.19;67.21;97966.16;5030664;28;20377;-60